aviador You're here:

UMMS Decoded Metar

MINSK 2 in BELARUS
Report Time2018-05-21 20:30:00
UTC Time2018-05-21 20:38:48
Flight Rules vfr VFR
WindCalm
Visibility9999 m
Phenomena:N/A
Clouds:N/A
Expected CloudBase > 4,400 ft AGL from Temp-Dew spread
CeilingNone
Temp15°C (ISA +1)
Dew Point04°C (48% RH)
AAT13.7°C
QNH1023 hPa
Density Alt607 ft
Elevation673 ft
Report Wrong Elevation
Raw Report
METAR UMMS 212030Z 00000MPS CAVOK 15/04 Q1023 R13/CLRD//
NOSIG=

Extra information for UMMS:More info

Metar Taf Metar & Taf Last 4 Metars F.Rules Stats Wind Profile Meteogram Temp Stats Airport Information Weather charts Add Link Nearby VenuesMetar ALERT Operation Metar Decoded Social comments